sensor_id;sensor_type;location;lat;lon;timestamp;P1;durP1;ratioP1;P2;durP2;ratioP2
22476;SDS011;65006;51.698;-0.292;2024-02-26T00:00:04;7.88;;;3.42;;
22476;SDS011;65006;51.698;-0.292;2024-02-26T00:02:36;7.38;;;3.67;;
22476;SDS011;65006;51.698;-0.292;2024-02-26T00:05:06;8.57;;;4.00;;
22476;SDS011;65006;51.698;-0.292;2024-02-26T00:07:33;7.00;;;3.10;;
22476;SDS011;65006;51.698;-0.292;2024-02-26T00:09:59;3.00;;;2.20;;
22476;SDS011;65006;51.698;-0.292;2024-02-26T00:12:25;5.25;;;2.97;;
22476;SDS011;65006;51.698;-0.292;2024-02-26T00:14:51;9.27;;;3.42;;
22476;SDS011;65006;51.698;-0.292;2024-02-26T00:17:18;7.03;;;3.72;;
22476;SDS011;65006;51.698;-0.292;2024-02-26T00:19:44;8.40;;;3.50;;
22476;SDS011;65006;51.698;-0.292;2024-02-26T00:22:10;7.80;;;3.13;;
22476;SDS011;65006;51.698;-0.292;2024-02-26T00:24:36;5.40;;;3.30;;
22476;SDS011;65006;51.698;-0.292;2024-02-26T00:27:02;9.02;;;3.65;;
22476;SDS011;65006;51.698;-0.292;2024-02-26T00:29:28;8.63;;;4.00;;
22476;SDS011;65006;51.698;-0.292;2024-02-26T00:31:54;7.03;;;4.03;;
22476;SDS011;65006;51.698;-0.292;2024-02-26T00:34:20;8.10;;;3.70;;
22476;SDS011;65006;51.698;-0.292;2024-02-26T00:36:46;8.55;;;3.70;;
22476;SDS011;65006;51.698;-0.292;2024-02-26T00:39:12;9.88;;;3.53;;
22476;SDS011;65006;51.698;-0.292;2024-02-26T00:41:39;9.18;;;3.47;;
22476;SDS011;65006;51.698;-0.292;2024-02-26T00:44:05;7.05;;;3.35;;
22476;SDS011;65006;51.698;-0.292;2024-02-26T00:46:31;10.15;;;4.07;;
22476;SDS011;65006;51.698;-0.292;2024-02-26T00:48:57;7.85;;;3.67;;
22476;SDS011;65006;51.698;-0.292;2024-02-26T00:51:23;7.68;;;3.60;;
22476;SDS011;65006;51.698;-0.292;2024-02-26T00:53:49;6.07;;;3.13;;
22476;SDS011;65006;51.698;-0.292;2024-02-26T00:56:15;11.20;;;3.60;;
22476;SDS011;65006;51.698;-0.292;2024-02-26T00:58:41;7.47;;;3.63;;
22476;SDS011;65006;51.698;-0.292;2024-02-26T01:01:07;8.10;;;4.13;;
22476;SDS011;65006;51.698;-0.292;2024-02-26T01:06:00;7.70;;;4.10;;
22476;SDS011;65006;51.698;-0.292;2024-02-26T01:08:26;6.15;;;3.75;;
22476;SDS011;65006;51.698;-0.292;2024-02-26T01:10:52;8.75;;;3.63;;
22476;SDS011;65006;51.698;-0.292;2024-02-26T01:13:18;11.68;;;3.90;;
22476;SDS011;65006;51.698;-0.292;2024-02-26T01:15:44;13.02;;;4.40;;
22476;SDS011;65006;51.698;-0.292;2024-02-26T01:18:10;6.13;;;3.65;;
22476;SDS011;65006;51.698;-0.292;2024-02-26T01:20:38;9.43;;;3.15;;
22476;SDS011;65006;51.698;-0.292;2024-02-26T01:23:04;7.88;;;3.33;;
22476;SDS011;65006;51.698;-0.292;2024-02-26T01:25:30;8.98;;;3.42;;
22476;SDS011;65006;51.698;-0.292;2024-02-26T01:27:56;6.13;;;3.90;;
22476;SDS011;65006;51.698;-0.292;2024-02-26T01:30:24;11.85;;;3.67;;
22476;SDS011;65006;51.698;-0.292;2024-02-26T01:32:49;10.80;;;3.28;;
22476;SDS011;65006;51.698;-0.292;2024-02-26T01:35:16;7.10;;;3.08;;
22476;SDS011;65006;51.698;-0.292;2024-02-26T01:37:41;6.70;;;3.42;;
22476;SDS011;65006;51.698;-0.292;2024-02-26T01:40:08;5.35;;;2.55;;
22476;SDS011;65006;51.698;-0.292;2024-02-26T01:45:00;9.88;;;3.65;;
22476;SDS011;65006;51.698;-0.292;2024-02-26T01:47:27;7.65;;;3.50;;
22476;SDS011;65006;51.698;-0.292;2024-02-26T01:49:53;13.77;;;4.20;;
22476;SDS011;65006;51.698;-0.292;2024-02-26T01:52:19;4.88;;;3.63;;
22476;SDS011;65006;51.698;-0.292;2024-02-26T01:54:46;10.07;;;3.65;;
22476;SDS011;65006;51.698;-0.292;2024-02-26T01:57:12;13.25;;;4.00;;
22476;SDS011;65006;51.698;-0.292;2024-02-26T01:59:39;10.35;;;3.40;;
22476;SDS011;65006;51.698;-0.292;2024-02-26T02:02:06;8.90;;;3.45;;
22476;SDS011;65006;51.698;-0.292;2024-02-26T02:04:34;6.15;;;3.28;;
22476;SDS011;65006;51.698;-0.292;2024-02-26T02:07:00;7.85;;;2.92;;
22476;SDS011;65006;51.698;-0.292;2024-02-26T02:09:27;6.13;;;2.80;;
22476;SDS011;65006;51.698;-0.292;2024-02-26T02:11:53;8.18;;;2.83;;
22476;SDS011;65006;51.698;-0.292;2024-02-26T02:14:19;3.40;;;2.72;;
22476;SDS011;65006;51.698;-0.292;2024-02-26T02:16:45;8.27;;;2.50;;
22476;SDS011;65006;51.698;-0.292;2024-02-26T02:19:11;6.05;;;3.08;;
22476;SDS011;65006;51.698;-0.292;2024-02-26T02:21:37;4.63;;;3.00;;
22476;SDS011;65006;51.698;-0.292;2024-02-26T02:24:04;6.38;;;3.05;;
22476;SDS011;65006;51.698;-0.292;2024-02-26T02:26:30;7.03;;;3.28;;
22476;SDS011;65006;51.698;-0.292;2024-02-26T02:28:56;5.10;;;2.40;;
22476;SDS011;65006;51.698;-0.292;2024-02-26T02:31:22;4.60;;;2.30;;
22476;SDS011;65006;51.698;-0.292;2024-02-26T02:33:48;4.90;;;2.20;;
22476;SDS011;65006;51.698;-0.292;2024-02-26T02:36:14;7.18;;;2.22;;
22476;SDS011;65006;51.698;-0.292;2024-02-26T02:38:50;8.38;;;2.22;;
22476;SDS011;65006;51.698;-0.292;2024-02-26T02:41:16;7.10;;;2.35;;
22476;SDS011;65006;51.698;-0.292;2024-02-26T02:43:43;5.80;;;2.10;;
22476;SDS011;65006;51.698;-0.292;2024-02-26T02:46:09;3.60;;;2.33;;
22476;SDS011;65006;51.698;-0.292;2024-02-26T02:48:39;4.72;;;2.38;;
22476;SDS011;65006;51.698;-0.292;2024-02-26T02:51:05;5.32;;;2.17;;
22476;SDS011;65006;51.698;-0.292;2024-02-26T02:53:31;3.33;;;2.33;;
22476;SDS011;65006;51.698;-0.292;2024-02-26T02:55:57;3.53;;;1.73;;
22476;SDS011;65006;51.698;-0.292;2024-02-26T02:58:23;3.55;;;2.22;;
22476;SDS011;65006;51.698;-0.292;2024-02-26T03:00:49;3.47;;;1.95;;
22476;SDS011;65006;51.698;-0.292;2024-02-26T03:03:15;6.80;;;1.95;;
22476;SDS011;65006;51.698;-0.292;2024-02-26T03:05:41;2.42;;;1.88;;
22476;SDS011;65006;51.698;-0.292;2024-02-26T03:08:07;5.53;;;1.67;;
22476;SDS011;65006;51.698;-0.292;2024-02-26T03:13:01;5.60;;;1.65;;
22476;SDS011;65006;51.698;-0.292;2024-02-26T03:15:27;6.43;;;2.08;;
22476;SDS011;65006;51.698;-0.292;2024-02-26T03:17:53;2.88;;;1.98;;
22476;SDS011;65006;51.698;-0.292;2024-02-26T03:20:19;4.80;;;1.75;;
22476;SDS011;65006;51.698;-0.292;2024-02-26T03:22:45;1.95;;;1.23;;
22476;SDS011;65006;51.698;-0.292;2024-02-26T03:25:11;3.88;;;1.92;;
22476;SDS011;65006;51.698;-0.292;2024-02-26T03:27:37;5.15;;;1.90;;
22476;SDS011;65006;51.698;-0.292;2024-02-26T03:30:04;2.95;;;1.98;;
22476;SDS011;65006;51.698;-0.292;2024-02-26T03:32:30;9.00;;;2.60;;
22476;SDS011;65006;51.698;-0.292;2024-02-26T03:34:56;2.90;;;1.70;;
22476;SDS011;65006;51.698;-0.292;2024-02-26T03:37:22;2.83;;;1.83;;
22476;SDS011;65006;51.698;-0.292;2024-02-26T03:39:48;6.05;;;1.77;;
22476;SDS011;65006;51.698;-0.292;2024-02-26T03:42:14;3.42;;;1.75;;
22476;SDS011;65006;51.698;-0.292;2024-02-26T03:44:41;3.47;;;1.48;;
22476;SDS011;65006;51.698;-0.292;2024-02-26T03:47:07;9.23;;;2.15;;
22476;SDS011;65006;51.698;-0.292;2024-02-26T03:49:33;3.03;;;1.65;;
22476;SDS011;65006;51.698;-0.292;2024-02-26T03:52:01;6.15;;;1.85;;
22476;SDS011;65006;51.698;-0.292;2024-02-26T03:54:27;3.10;;;1.60;;
22476;SDS011;65006;51.698;-0.292;2024-02-26T03:56:53;6.05;;;1.80;;
22476;SDS011;65006;51.698;-0.292;2024-02-26T03:59:19;3.78;;;1.88;;
22476;SDS011;65006;51.698;-0.292;2024-02-26T04:01:48;4.70;;;1.65;;
22476;SDS011;65006;51.698;-0.292;2024-02-26T04:04:14;2.50;;;1.70;;
22476;SDS011;65006;51.698;-0.292;2024-02-26T04:06:43;4.20;;;1.45;;
22476;SDS011;65006;51.698;-0.292;2024-02-26T04:09:09;11.77;;;1.60;;
22476;SDS011;65006;51.698;-0.292;2024-02-26T04:11:35;4.13;;;1.80;;
22476;SDS011;65006;51.698;-0.292;2024-02-26T04:14:02;4.95;;;1.50;;
22476;SDS011;65006;51.698;-0.292;2024-02-26T04:16:28;7.82;;;1.60;;
22476;SDS011;65006;51.698;-0.292;2024-02-26T04:18:54;3.28;;;1.50;;
22476;SDS011;65006;51.698;-0.292;2024-02-26T04:21:20;1.90;;;1.60;;
22476;SDS011;65006;51.698;-0.292;2024-02-26T04:23:46;5.45;;;1.75;;
22476;SDS011;65006;51.698;-0.292;2024-02-26T04:26:14;2.17;;;1.02;;
22476;SDS011;65006;51.698;-0.292;2024-02-26T04:31:06;7.05;;;1.70;;
22476;SDS011;65006;51.698;-0.292;2024-02-26T04:33:33;4.28;;;1.42;;
22476;SDS011;65006;51.698;-0.292;2024-02-26T04:36:00;4.10;;;1.35;;
22476;SDS011;65006;51.698;-0.292;2024-02-26T04:38:26;9.95;;;1.50;;
22476;SDS011;65006;51.698;-0.292;2024-02-26T04:40:52;4.75;;;1.30;;
22476;SDS011;65006;51.698;-0.292;2024-02-26T04:43:18;3.60;;;1.23;;
22476;SDS011;65006;51.698;-0.292;2024-02-26T04:45:44;1.45;;;1.02;;
22476;SDS011;65006;51.698;-0.292;2024-02-26T04:48:10;2.38;;;1.30;;
22476;SDS011;65006;51.698;-0.292;2024-02-26T04:50:36;2.72;;;1.58;;
22476;SDS011;65006;51.698;-0.292;2024-02-26T04:53:02;1.10;;;0.90;;
22476;SDS011;65006;51.698;-0.292;2024-02-26T04:55:29;6.28;;;1.10;;
22476;SDS011;65006;51.698;-0.292;2024-02-26T04:57:55;8.13;;;1.30;;
22476;SDS011;65006;51.698;-0.292;2024-02-26T05:00:21;5.70;;;1.35;;
22476;SDS011;65006;51.698;-0.292;2024-02-26T05:02:47;6.70;;;1.30;;
22476;SDS011;65006;51.698;-0.292;2024-02-26T05:05:13;3.95;;;1.40;;
22476;SDS011;65006;51.698;-0.292;2024-02-26T05:07:39;1.65;;;0.73;;
22476;SDS011;65006;51.698;-0.292;2024-02-26T05:10:06;2.70;;;1.33;;
22476;SDS011;65006;51.698;-0.292;2024-02-26T05:17:26;3.42;;;1.17;;
22476;SDS011;65006;51.698;-0.292;2024-02-26T05:19:53;3.20;;;1.52;;
22476;SDS011;65006;51.698;-0.292;2024-02-26T05:22:19;3.03;;;1.00;;
22476;SDS011;65006;51.698;-0.292;2024-02-26T05:24:45;1.58;;;0.90;;
22476;SDS011;65006;51.698;-0.292;2024-02-26T05:27:11;1.58;;;0.85;;
22476;SDS011;65006;51.698;-0.292;2024-02-26T05:29:37;3.60;;;0.85;;
22476;SDS011;65006;51.698;-0.292;2024-02-26T05:32:03;1.65;;;1.00;;
22476;SDS011;65006;51.698;-0.292;2024-02-26T05:36:55;1.42;;;0.90;;
22476;SDS011;65006;51.698;-0.292;2024-02-26T05:39:22;1.95;;;1.00;;
22476;SDS011;65006;51.698;-0.292;2024-02-26T05:41:48;3.72;;;0.85;;
22476;SDS011;65006;51.698;-0.292;2024-02-26T05:46:41;3.42;;;1.73;;
22476;SDS011;65006;51.698;-0.292;2024-02-26T05:49:07;0.75;;;0.70;;
22476;SDS011;65006;51.698;-0.292;2024-02-26T05:51:33;4.25;;;0.80;;
22476;SDS011;65006;51.698;-0.292;2024-02-26T05:53:59;2.60;;;1.17;;
22476;SDS011;65006;51.698;-0.292;2024-02-26T05:56:25;2.17;;;0.60;;
22476;SDS011;65006;51.698;-0.292;2024-02-26T05:58:51;1.77;;;0.60;;
22476;SDS011;65006;51.698;-0.292;2024-02-26T06:01:19;4.10;;;0.80;;
22476;SDS011;65006;51.698;-0.292;2024-02-26T06:03:45;1.35;;;0.68;;
22476;SDS011;65006;51.698;-0.292;2024-02-26T06:06:11;1.92;;;0.60;;
22476;SDS011;65006;51.698;-0.292;2024-02-26T06:08:39;4.88;;;0.57;;
22476;SDS011;65006;51.698;-0.292;2024-02-26T06:11:08;4.03;;;0.80;;
22476;SDS011;65006;51.698;-0.292;2024-02-26T06:13:34;4.60;;;0.82;;
22476;SDS011;65006;51.698;-0.292;2024-02-26T06:16:01;3.63;;;0.70;;
22476;SDS011;65006;51.698;-0.292;2024-02-26T06:18:27;2.35;;;0.70;;
22476;SDS011;65006;51.698;-0.292;2024-02-26T06:20:53;8.25;;;0.80;;
22476;SDS011;65006;51.698;-0.292;2024-02-26T06:23:19;7.15;;;0.60;;
22476;SDS011;65006;51.698;-0.292;2024-02-26T06:25:45;2.13;;;0.73;;
22476;SDS011;65006;51.698;-0.292;2024-02-26T06:28:13;5.15;;;0.70;;
22476;SDS011;65006;51.698;-0.292;2024-02-26T06:30:40;4.57;;;1.20;;
22476;SDS011;65006;51.698;-0.292;2024-02-26T06:33:06;2.15;;;1.20;;
22476;SDS011;65006;51.698;-0.292;2024-02-26T06:35:32;3.22;;;0.77;;
22476;SDS011;65006;51.698;-0.292;2024-02-26T06:37:58;4.18;;;0.90;;
22476;SDS011;65006;51.698;-0.292;2024-02-26T06:40:24;7.55;;;0.82;;
22476;SDS011;65006;51.698;-0.292;2024-02-26T06:42:53;4.70;;;1.00;;
22476;SDS011;65006;51.698;-0.292;2024-02-26T06:45:19;5.63;;;1.10;;
22476;SDS011;65006;51.698;-0.292;2024-02-26T06:47:45;6.82;;;0.82;;
22476;SDS011;65006;51.698;-0.292;2024-02-26T06:50:11;3.25;;;0.85;;
22476;SDS011;65006;51.698;-0.292;2024-02-26T06:52:38;8.38;;;1.60;;
22476;SDS011;65006;51.698;-0.292;2024-02-26T06:55:04;2.85;;;0.93;;
22476;SDS011;65006;51.698;-0.292;2024-02-26T06:57:33;4.75;;;1.10;;
22476;SDS011;65006;51.698;-0.292;2024-02-26T06:59:59;4.75;;;0.93;;
22476;SDS011;65006;51.698;-0.292;2024-02-26T07:02:25;2.38;;;0.70;;
22476;SDS011;65006;51.698;-0.292;2024-02-26T07:04:51;3.42;;;0.95;;
22476;SDS011;65006;51.698;-0.292;2024-02-26T07:07:17;6.90;;;0.85;;
22476;SDS011;65006;51.698;-0.292;2024-02-26T07:09:43;4.13;;;1.25;;
22476;SDS011;65006;51.698;-0.292;2024-02-26T07:12:10;7.68;;;1.02;;
22476;SDS011;65006;51.698;-0.292;2024-02-26T07:14:36;1.27;;;0.60;;
22476;SDS011;65006;51.698;-0.292;2024-02-26T07:17:02;3.67;;;0.90;;
22476;SDS011;65006;51.698;-0.292;2024-02-26T07:19:28;6.32;;;0.95;;
22476;SDS011;65006;51.698;-0.292;2024-02-26T07:21:55;2.92;;;0.93;;
22476;SDS011;65006;51.698;-0.292;2024-02-26T07:24:21;2.65;;;1.13;;
22476;SDS011;65006;51.698;-0.292;2024-02-26T07:26:47;6.45;;;0.95;;
22476;SDS011;65006;51.698;-0.292;2024-02-26T07:29:13;4.70;;;0.65;;
22476;SDS011;65006;51.698;-0.292;2024-02-26T07:31:39;4.38;;;1.48;;
22476;SDS011;65006;51.698;-0.292;2024-02-26T07:34:05;0.57;;;0.57;;
22476;SDS011;65006;51.698;-0.292;2024-02-26T07:36:33;1.63;;;0.80;;
22476;SDS011;65006;51.698;-0.292;2024-02-26T07:38:59;7.28;;;0.95;;
22476;SDS011;65006;51.698;-0.292;2024-02-26T07:41:26;0.95;;;0.80;;
22476;SDS011;65006;51.698;-0.292;2024-02-26T07:43:52;5.30;;;0.80;;
22476;SDS011;65006;51.698;-0.292;2024-02-26T07:46:18;2.65;;;0.70;;
22476;SDS011;65006;51.698;-0.292;2024-02-26T07:48:44;1.77;;;1.17;;
22476;SDS011;65006;51.698;-0.292;2024-02-26T07:51:13;3.83;;;0.85;;
22476;SDS011;65006;51.698;-0.292;2024-02-26T07:53:40;2.00;;;0.65;;
22476;SDS011;65006;51.698;-0.292;2024-02-26T07:56:06;3.47;;;0.80;;
22476;SDS011;65006;51.698;-0.292;2024-02-26T08:00:58;1.98;;;0.95;;
22476;SDS011;65006;51.698;-0.292;2024-02-26T08:03:24;3.35;;;0.50;;
22476;SDS011;65006;51.698;-0.292;2024-02-26T08:05:51;1.92;;;0.68;;
22476;SDS011;65006;51.698;-0.292;2024-02-26T08:08:17;2.00;;;0.50;;
22476;SDS011;65006;51.698;-0.292;2024-02-26T08:10:43;4.57;;;0.35;;
22476;SDS011;65006;51.698;-0.292;2024-02-26T08:13:09;2.67;;;1.30;;
22476;SDS011;65006;51.698;-0.292;2024-02-26T08:15:35;2.83;;;0.55;;
22476;SDS011;65006;51.698;-0.292;2024-02-26T08:18:04;4.63;;;1.05;;
22476;SDS011;65006;51.698;-0.292;2024-02-26T08:20:30;1.83;;;0.57;;
22476;SDS011;65006;51.698;-0.292;2024-02-26T08:22:57;7.38;;;0.95;;
22476;SDS011;65006;51.698;-0.292;2024-02-26T08:25:23;2.58;;;0.73;;
22476;SDS011;65006;51.698;-0.292;2024-02-26T08:27:49;3.08;;;0.60;;
22476;SDS011;65006;51.698;-0.292;2024-02-26T08:30:15;3.88;;;1.05;;
22476;SDS011;65006;51.698;-0.292;2024-02-26T08:35:08;3.08;;;0.57;;
22476;SDS011;65006;51.698;-0.292;2024-02-26T08:37:34;2.92;;;1.52;;
22476;SDS011;65006;51.698;-0.292;2024-02-26T08:40:00;4.80;;;0.90;;
22476;SDS011;65006;51.698;-0.292;2024-02-26T08:42:26;2.88;;;0.60;;
22476;SDS011;65006;51.698;-0.292;2024-02-26T08:44:52;4.82;;;0.75;;
22476;SDS011;65006;51.698;-0.292;2024-02-26T08:47:19;2.85;;;0.68;;
22476;SDS011;65006;51.698;-0.292;2024-02-26T08:52:12;8.20;;;0.70;;
22476;SDS011;65006;51.698;-0.292;2024-02-26T08:57:13;8.32;;;0.95;;
22476;SDS011;65006;51.698;-0.292;2024-02-26T08:59:39;2.83;;;0.50;;
22476;SDS011;65006;51.698;-0.292;2024-02-26T09:02:05;2.42;;;0.70;;
22476;SDS011;65006;51.698;-0.292;2024-02-26T09:04:33;4.05;;;0.73;;
22476;SDS011;65006;51.698;-0.292;2024-02-26T09:07:00;3.92;;;0.77;;
22476;SDS011;65006;51.698;-0.292;2024-02-26T09:11:52;6.63;;;0.60;;
22476;SDS011;65006;51.698;-0.292;2024-02-26T09:14:20;2.80;;;0.57;;
22476;SDS011;65006;51.698;-0.292;2024-02-26T09:16:46;3.42;;;0.82;;
22476;SDS011;65006;51.698;-0.292;2024-02-26T09:19:16;3.53;;;0.65;;
22476;SDS011;65006;51.698;-0.292;2024-02-26T09:21:45;0.95;;;0.50;;
22476;SDS011;65006;51.698;-0.292;2024-02-26T09:24:11;2.92;;;0.73;;
22476;SDS011;65006;51.698;-0.292;2024-02-26T09:26:37;2.72;;;1.10;;
22476;SDS011;65006;51.698;-0.292;2024-02-26T09:29:03;2.33;;;0.85;;
22476;SDS011;65006;51.698;-0.292;2024-02-26T09:31:30;2.65;;;0.80;;
22476;SDS011;65006;51.698;-0.292;2024-02-26T09:33:56;4.88;;;0.52;;
22476;SDS011;65006;51.698;-0.292;2024-02-26T09:36:22;4.43;;;1.35;;
22476;SDS011;65006;51.698;-0.292;2024-02-26T09:38:48;2.15;;;0.40;;
22476;SDS011;65006;51.698;-0.292;2024-02-26T09:41:14;3.03;;;0.68;;
22476;SDS011;65006;51.698;-0.292;2024-02-26T09:43:41;5.70;;;0.68;;
22476;SDS011;65006;51.698;-0.292;2024-02-26T09:46:10;2.15;;;0.50;;
22476;SDS011;65006;51.698;-0.292;2024-02-26T09:48:36;3.13;;;0.65;;
22476;SDS011;65006;51.698;-0.292;2024-02-26T09:51:03;1.00;;;0.77;;
22476;SDS011;65006;51.698;-0.292;2024-02-26T09:53:29;3.45;;;0.50;;
22476;SDS011;65006;51.698;-0.292;2024-02-26T09:55:58;3.47;;;0.60;;
22476;SDS011;65006;51.698;-0.292;2024-02-26T09:58:24;2.45;;;0.43;;
22476;SDS011;65006;51.698;-0.292;2024-02-26T10:00:53;0.73;;;0.35;;
22476;SDS011;65006;51.698;-0.292;2024-02-26T10:03:24;5.30;;;0.90;;
22476;SDS011;65006;51.698;-0.292;2024-02-26T10:05:51;2.63;;;0.50;;
22476;SDS011;65006;51.698;-0.292;2024-02-26T10:08:20;1.20;;;0.30;;
22476;SDS011;65006;51.698;-0.292;2024-02-26T10:10:47;1.67;;;0.40;;
22476;SDS011;65006;51.698;-0.292;2024-02-26T10:13:13;2.45;;;0.60;;
22476;SDS011;65006;51.698;-0.292;2024-02-26T10:15:39;2.25;;;0.43;;
22476;SDS011;65006;51.698;-0.292;2024-02-26T10:18:07;3.20;;;1.10;;
22476;SDS011;65006;51.698;-0.292;2024-02-26T10:20:33;1.10;;;0.47;;
22476;SDS011;65006;51.698;-0.292;2024-02-26T10:23:02;5.63;;;0.50;;
22476;SDS011;65006;51.698;-0.292;2024-02-26T10:25:29;8.15;;;0.80;;
22476;SDS011;65006;51.698;-0.292;2024-02-26T10:27:59;4.95;;;0.50;;
22476;SDS011;65006;51.698;-0.292;2024-02-26T10:30:28;1.13;;;0.40;;
22476;SDS011;65006;51.698;-0.292;2024-02-26T10:35:21;1.75;;;0.73;;
22476;SDS011;65006;51.698;-0.292;2024-02-26T10:37:48;5.40;;;0.50;;
22476;SDS011;65006;51.698;-0.292;2024-02-26T10:40:15;3.72;;;0.70;;
22476;SDS011;65006;51.698;-0.292;2024-02-26T10:42:41;3.03;;;1.20;;
22476;SDS011;65006;51.698;-0.292;2024-02-26T10:45:08;4.45;;;0.75;;
22476;SDS011;65006;51.698;-0.292;2024-02-26T10:47:37;3.30;;;0.75;;
22476;SDS011;65006;51.698;-0.292;2024-02-26T10:50:04;4.97;;;0.47;;
22476;SDS011;65006;51.698;-0.292;2024-02-26T10:52:31;2.30;;;0.75;;
22476;SDS011;65006;51.698;-0.292;2024-02-26T10:55:04;2.85;;;0.60;;
22476;SDS011;65006;51.698;-0.292;2024-02-26T10:57:35;2.47;;;0.60;;
22476;SDS011;65006;51.698;-0.292;2024-02-26T11:00:02;7.00;;;0.70;;
22476;SDS011;65006;51.698;-0.292;2024-02-26T11:02:34;5.05;;;0.70;;
22476;SDS011;65006;51.698;-0.292;2024-02-26T11:05:04;3.25;;;0.65;;
22476;SDS011;65006;51.698;-0.292;2024-02-26T11:07:31;7.90;;;1.30;;
22476;SDS011;65006;51.698;-0.292;2024-02-26T11:09:59;3.03;;;0.85;;
22476;SDS011;65006;51.698;-0.292;2024-02-26T11:12:25;5.22;;;0.93;;
22476;SDS011;65006;51.698;-0.292;2024-02-26T11:14:53;2.58;;;0.68;;
22476;SDS011;65006;51.698;-0.292;2024-02-26T11:17:22;2.90;;;0.88;;
22476;SDS011;65006;51.698;-0.292;2024-02-26T11:19:51;7.57;;;0.75;;
22476;SDS011;65006;51.698;-0.292;2024-02-26T11:22:18;1.13;;;0.60;;
22476;SDS011;65006;51.698;-0.292;2024-02-26T11:24:47;3.63;;;0.70;;
22476;SDS011;65006;51.698;-0.292;2024-02-26T11:27:14;4.45;;;0.70;;
22476;SDS011;65006;51.698;-0.292;2024-02-26T11:29:52;1.45;;;0.50;;
22476;SDS011;65006;51.698;-0.292;2024-02-26T11:32:18;1.58;;;0.50;;
22476;SDS011;65006;51.698;-0.292;2024-02-26T11:34:44;3.83;;;0.50;;
22476;SDS011;65006;51.698;-0.292;2024-02-26T11:37:13;8.10;;;1.45;;
22476;SDS011;65006;51.698;-0.292;2024-02-26T11:39:40;1.95;;;0.40;;
22476;SDS011;65006;51.698;-0.292;2024-02-26T11:44:33;1.83;;;0.43;;
22476;SDS011;65006;51.698;-0.292;2024-02-26T11:47:10;5.10;;;0.80;;
22476;SDS011;65006;51.698;-0.292;2024-02-26T11:49:37;1.60;;;0.40;;
22476;SDS011;65006;51.698;-0.292;2024-02-26T11:52:05;1.58;;;0.43;;
22476;SDS011;65006;51.698;-0.292;2024-02-26T11:57:37;2.17;;;0.50;;
22476;SDS011;65006;51.698;-0.292;2024-02-26T12:05:17;3.45;;;0.43;;
22476;SDS011;65006;51.698;-0.292;2024-02-26T12:08:03;6.88;;;0.85;;
22476;SDS011;65006;51.698;-0.292;2024-02-26T12:10:32;2.53;;;0.40;;
22476;SDS011;65006;51.698;-0.292;2024-02-26T12:13:07;0.50;;;0.30;;
22476;SDS011;65006;51.698;-0.292;2024-02-26T12:18:08;4.03;;;0.70;;
22476;SDS011;65006;51.698;-0.292;2024-02-26T12:20:35;3.28;;;0.30;;
22476;SDS011;65006;51.698;-0.292;2024-02-26T12:23:04;2.13;;;0.52;;
22476;SDS011;65006;51.698;-0.292;2024-02-26T12:25:31;4.40;;;0.40;;
22476;SDS011;65006;51.698;-0.292;2024-02-26T12:27:58;2.38;;;0.32;;
22476;SDS011;65006;51.698;-0.292;2024-02-26T12:30:24;3.15;;;0.75;;
22476;SDS011;65006;51.698;-0.292;2024-02-26T12:32:51;4.07;;;0.80;;
22476;SDS011;65006;51.698;-0.292;2024-02-26T12:35:17;3.40;;;0.77;;
22476;SDS011;65006;51.698;-0.292;2024-02-26T12:37:43;1.67;;;0.50;;
22476;SDS011;65006;51.698;-0.292;2024-02-26T12:40:09;1.45;;;0.50;;
22476;SDS011;65006;51.698;-0.292;2024-02-26T12:45:06;3.22;;;0.40;;
22476;SDS011;65006;51.698;-0.292;2024-02-26T12:47:36;2.47;;;0.30;;
22476;SDS011;65006;51.698;-0.292;2024-02-26T12:50:03;0.77;;;0.30;;
22476;SDS011;65006;51.698;-0.292;2024-02-26T12:52:29;1.20;;;0.30;;
22476;SDS011;65006;51.698;-0.292;2024-02-26T12:54:56;0.90;;;0.40;;
22476;SDS011;65006;51.698;-0.292;2024-02-26T12:57:22;9.75;;;1.40;;
22476;SDS011;65006;51.698;-0.292;2024-02-26T12:59:49;1.65;;;0.30;;
22476;SDS011;65006;51.698;-0.292;2024-02-26T13:02:15;0.45;;;0.45;;
22476;SDS011;65006;51.698;-0.292;2024-02-26T13:04:41;4.65;;;0.57;;
22476;SDS011;65006;51.698;-0.292;2024-02-26T13:07:09;1.35;;;0.40;;
22476;SDS011;65006;51.698;-0.292;2024-02-26T13:09:40;0.88;;;0.38;;
22476;SDS011;65006;51.698;-0.292;2024-02-26T13:12:07;3.78;;;0.40;;
22476;SDS011;65006;51.698;-0.292;2024-02-26T13:14:33;0.73;;;0.20;;
22476;SDS011;65006;51.698;-0.292;2024-02-26T13:17:00;0.93;;;0.30;;
22476;SDS011;65006;51.698;-0.292;2024-02-26T13:21:53;9.68;;;0.85;;
22476;SDS011;65006;51.698;-0.292;2024-02-26T13:24:19;10.30;;;2.78;;
22476;SDS011;65006;51.698;-0.292;2024-02-26T13:26:47;7.53;;;0.45;;
22476;SDS011;65006;51.698;-0.292;2024-02-26T13:29:19;1.65;;;0.25;;
22476;SDS011;65006;51.698;-0.292;2024-02-26T13:31:45;2.75;;;0.40;;
22476;SDS011;65006;51.698;-0.292;2024-02-26T13:34:11;1.70;;;0.93;;
22476;SDS011;65006;51.698;-0.292;2024-02-26T13:36:49;6.18;;;0.50;;
22476;SDS011;65006;51.698;-0.292;2024-02-26T13:39:21;0.77;;;0.40;;
22476;SDS011;65006;51.698;-0.292;2024-02-26T13:41:48;1.77;;;0.43;;
22476;SDS011;65006;51.698;-0.292;2024-02-26T13:44:14;3.40;;;0.25;;
22476;SDS011;65006;51.698;-0.292;2024-02-26T13:46:40;0.57;;;0.28;;
22476;SDS011;65006;51.698;-0.292;2024-02-26T13:49:07;2.15;;;0.55;;
22476;SDS011;65006;51.698;-0.292;2024-02-26T13:51:34;3.33;;;0.80;;
22476;SDS011;65006;51.698;-0.292;2024-02-26T13:54:01;3.20;;;0.50;;
22476;SDS011;65006;51.698;-0.292;2024-02-26T13:56:27;1.05;;;0.52;;
22476;SDS011;65006;51.698;-0.292;2024-02-26T13:58:53;2.50;;;0.60;;
22476;SDS011;65006;51.698;-0.292;2024-02-26T14:01:19;2.33;;;0.32;;
22476;SDS011;65006;51.698;-0.292;2024-02-26T14:03:51;0.50;;;0.40;;
22476;SDS011;65006;51.698;-0.292;2024-02-26T14:06:20;3.90;;;0.55;;
22476;SDS011;65006;51.698;-0.292;2024-02-26T14:08:46;0.45;;;0.30;;
22476;SDS011;65006;51.698;-0.292;2024-02-26T14:11:12;5.28;;;0.73;;
22476;SDS011;65006;51.698;-0.292;2024-02-26T14:13:38;2.58;;;0.55;;
22476;SDS011;65006;51.698;-0.292;2024-02-26T14:16:05;17.77;;;0.82;;
22476;SDS011;65006;51.698;-0.292;2024-02-26T14:18:31;0.90;;;0.40;;
22476;SDS011;65006;51.698;-0.292;2024-02-26T14:20:57;6.30;;;0.73;;
22476;SDS011;65006;51.698;-0.292;2024-02-26T14:23:23;1.55;;;0.40;;
22476;SDS011;65006;51.698;-0.292;2024-02-26T14:25:49;4.20;;;0.60;;
22476;SDS011;65006;51.698;-0.292;2024-02-26T14:28:16;5.15;;;0.65;;
22476;SDS011;65006;51.698;-0.292;2024-02-26T14:30:43;1.15;;;0.32;;
22476;SDS011;65006;51.698;-0.292;2024-02-26T14:33:09;2.85;;;0.50;;
22476;SDS011;65006;51.698;-0.292;2024-02-26T14:35:35;3.63;;;0.70;;
22476;SDS011;65006;51.698;-0.292;2024-02-26T14:38:01;1.35;;;0.60;;
22476;SDS011;65006;51.698;-0.292;2024-02-26T14:40:27;2.13;;;0.55;;
22476;SDS011;65006;51.698;-0.292;2024-02-26T14:42:54;2.50;;;0.50;;
22476;SDS011;65006;51.698;-0.292;2024-02-26T14:45:22;1.45;;;0.40;;
22476;SDS011;65006;51.698;-0.292;2024-02-26T14:47:48;3.47;;;0.50;;
22476;SDS011;65006;51.698;-0.292;2024-02-26T14:50:16;1.10;;;0.60;;
22476;SDS011;65006;51.698;-0.292;2024-02-26T14:52:42;4.63;;;0.65;;
22476;SDS011;65006;51.698;-0.292;2024-02-26T14:55:09;7.03;;;1.00;;
22476;SDS011;65006;51.698;-0.292;2024-02-26T14:57:35;1.00;;;0.40;;
22476;SDS011;65006;51.698;-0.292;2024-02-26T15:00:02;5.35;;;0.80;;
22476;SDS011;65006;51.698;-0.292;2024-02-26T15:02:30;7.13;;;0.82;;
22476;SDS011;65006;51.698;-0.292;2024-02-26T15:04:56;1.75;;;0.38;;
22476;SDS011;65006;51.698;-0.292;2024-02-26T15:07:22;3.67;;;0.70;;
22476;SDS011;65006;51.698;-0.292;2024-02-26T15:09:48;4.65;;;0.88;;
22476;SDS011;65006;51.698;-0.292;2024-02-26T15:12:14;8.75;;;0.65;;
22476;SDS011;65006;51.698;-0.292;2024-02-26T15:14:42;6.25;;;0.50;;
22476;SDS011;65006;51.698;-0.292;2024-02-26T15:17:10;1.83;;;0.45;;
22476;SDS011;65006;51.698;-0.292;2024-02-26T15:19:38;1.95;;;0.47;;
22476;SDS011;65006;51.698;-0.292;2024-02-26T15:22:04;1.73;;;0.57;;